La Marque, Texas
Current Conditions -  °F | °C
As of 1:52 PM on Thursday 29 Jan 2015 (Local Time) from KGLS Reporting Station
Few Clouds Few Clouds  
Wind Chill: 21°   Ceiling: Unl
Heat Index: 21°   Visibility: 10mi
Dew Point: 16°   Wind: 12mph
Humidity: 73%   Direction: 200°SSW
Pressure: 30.22"   Gusts: NA
Location:  29.37°N, 94.97°W
Report Text: KGLS 291952Z 20010KT 10SM FEW021 21/16 A3022 RMK AO2 SLP233 T02110161
Loading
Personal Weather Stations






























Interactive Weather Map New forecast layout! Learn more

10-Day Weather Forecast

Advertisements
Track Severe Weather on mobile